Time;durP1;ratioP1;P1;durP2;ratioP2;P2;SDS_P1;SDS_P2;PMS_P1;PMS_P2;Temp;Humidity;BMP_temperature;BMP_pressure;BME280_temperature;BME280_humidity;BME280_pressure;Samples;Min_cycle;Max_cycle;Signal;HPM_P1;HPM_P2
2022/12/09 00:01:08;;;;;;;17.92;8.85;;;;;;;;;;5027361;28;20037;-73
2022/12/09 00:03:54;;;;;;;15.13;8.15;;;;;;;;;;5017372;28;20527;-73
2022/12/09 00:06:39;;;;;;;18.52;9.10;;;;;;;;;;5031797;28;20047;-74
2022/12/09 00:09:24;;;;;;;19.42;9.57;;;;;;;;;;5016998;28;20502;-73
2022/12/09 00:12:09;;;;;;;15.43;7.40;;;;;;;;;;5029346;28;20117;-73
2022/12/09 00:14:55;;;;;;;13.93;7.32;;;;;;;;;;5032372;28;20114;-74
2022/12/09 00:17:40;;;;;;;15.18;7.38;;;;;;;;;;5039089;28;20036;-73
2022/12/09 00:20:25;;;;;;;12.52;5.72;;;;;;;;;;5029146;28;20037;-72
2022/12/09 00:23:10;;;;;;;12.50;6.43;;;;;;;;;;5030780;28;20036;-74
2022/12/09 00:25:56;;;;;;;13.55;6.10;;;;;;;;;;5031137;28;20025;-74
2022/12/09 00:28:41;;;;;;;13.68;6.13;;;;;;;;;;5031748;28;20057;-73
2022/12/09 00:31:28;;;;;;;12.90;6.70;;;;;;;;;;5031054;28;20025;-74
2022/12/09 00:34:13;;;;;;;13.20;6.57;;;;;;;;;;5027817;28;20032;-79
2022/12/09 00:36:58;;;;;;;14.48;6.28;;;;;;;;;;5030783;28;20025;-79
2022/12/09 00:39:45;;;;;;;11.00;6.35;;;;;;;;;;5018935;28;20024;-78
2022/12/09 00:42:30;;;;;;;13.18;6.22;;;;;;;;;;5004467;28;20028;-77
2022/12/09 00:45:18;;;;;;;14.20;6.53;;;;;;;;;;5014384;28;20507;-78
2022/12/09 00:48:06;;;;;;;13.27;6.55;;;;;;;;;;5032453;28;20503;-78
2022/12/09 00:50:52;;;;;;;13.40;6.95;;;;;;;;;;5022697;28;20033;-75
2022/12/09 00:53:38;;;;;;;15.25;6.65;;;;;;;;;;5030211;28;20169;-78
2022/12/09 00:56:28;;;;;;;12.18;6.35;;;;;;;;;;5031687;28;20121;-80
2022/12/09 00:59:13;;;;;;;10.63;5.95;;;;;;;;;;4986650;28;20040;-79
2022/12/09 01:01:59;;;;;;;12.65;6.85;;;;;;;;;;4989235;28;20047;-82
2022/12/09 01:04:48;;;;;;;12.90;5.75;;;;;;;;;;4985890;28;20559;-80
2022/12/09 01:07:38;;;;;;;11.23;6.22;;;;;;;;;;4972945;28;20086;-75
2022/12/09 01:10:23;;;;;;;11.95;6.18;;;;;;;;;;4987009;28;20500;-75
2022/12/09 01:13:29;;;;;;;13.88;6.80;;;;;;;;;;4990126;28;20425;-78
2022/12/09 01:16:47;;;;;;;16.02;6.30;;;;;;;;;;4980667;28;20490;-77
2022/12/09 01:19:36;;;;;;;13.90;6.53;;;;;;;;;;4972329;28;20021;-79
2022/12/09 01:22:30;;;;;;;12.45;5.68;;;;;;;;;;4969521;28;20818;-78
2022/12/09 01:25:28;;;;;;;10.95;5.43;;;;;;;;;;4978847;28;20033;-77
2022/12/09 01:28:19;;;;;;;11.75;6.38;;;;;;;;;;4991076;28;20038;-71
2022/12/09 01:31:08;;;;;;;10.90;5.40;;;;;;;;;;4975857;28;20028;-74
2022/12/09 01:33:54;;;;;;;12.48;6.05;;;;;;;;;;4984939;28;20018;-76
2022/12/09 01:36:39;;;;;;;10.48;5.85;;;;;;;;;;4989792;28;20056;-74
2022/12/09 01:39:25;;;;;;;10.77;6.43;;;;;;;;;;4993809;28;20440;-72
2022/12/09 01:42:17;;;;;;;15.85;6.95;;;;;;;;;;4981010;28;20034;-74
2022/12/09 01:45:21;;;;;;;12.80;5.72;;;;;;;;;;4978535;28;20152;-76
2022/12/09 01:48:09;;;;;;;11.00;5.63;;;;;;;;;;4980094;28;20042;-75
2022/12/09 01:50:58;;;;;;;9.90;5.68;;;;;;;;;;5031416;28;20412;-76
2022/12/09 01:53:45;;;;;;;11.05;6.55;;;;;;;;;;5043189;28;20227;-76
2022/12/09 01:56:34;;;;;;;12.88;6.25;;;;;;;;;;5018757;28;20033;-75
2022/12/09 01:59:19;;;;;;;9.43;5.13;;;;;;;;;;5033096;28;20095;-78
2022/12/09 02:02:06;;;;;;;10.15;5.63;;;;;;;;;;5034696;28;20051;-76
2022/12/09 02:04:51;;;;;;;10.80;5.25;;;;;;;;;;5035742;28;20110;-74
2022/12/09 02:07:43;;;;;;;12.30;5.75;;;;;;;;;;5019049;28;20021;-79
2022/12/09 02:10:45;;;;;;;18.92;6.75;;;;;;;;;;4995357;28;20030;-78
2022/12/09 02:13:43;;;;;;;12.60;5.55;;;;;;;;;;4981855;28;20192;-77
2022/12/09 02:16:37;;;;;;;11.30;5.95;;;;;;;;;;5005295;28;20112;-77
2022/12/09 02:20:02;;;;;;;11.07;5.38;;;;;;;;;;4999282;28;20037;-79
2022/12/09 02:22:57;;;;;;;12.23;5.35;;;;;;;;;;4999084;28;20087;-72
2022/12/09 02:25:45;;;;;;;10.10;5.40;;;;;;;;;;5019835;28;20021;-74
2022/12/09 02:28:39;;;;;;;11.75;5.30;;;;;;;;;;5013190;28;20392;-71
2022/12/09 02:31:27;;;;;;;10.48;4.30;;;;;;;;;;5021116;28;20026;-72
2022/12/09 02:34:12;;;;;;;8.98;4.75;;;;;;;;;;5011274;28;20126;-72
2022/12/09 02:37:00;;;;;;;11.40;5.38;;;;;;;;;;5009191;28;20048;-72
2022/12/09 02:39:45;;;;;;;11.88;5.28;;;;;;;;;;5010571;28;20520;-73
2022/12/09 02:42:32;;;;;;;9.98;5.30;;;;;;;;;;5029649;28;20468;-72
2022/12/09 02:45:18;;;;;;;9.15;5.07;;;;;;;;;;5033777;28;20031;-73
2022/12/09 02:48:04;;;;;;;9.98;5.53;;;;;;;;;;5029485;28;20786;-73
2022/12/09 02:50:51;;;;;;;9.00;4.93;;;;;;;;;;5032541;28;20435;-73
2022/12/09 02:53:37;;;;;;;12.45;5.25;;;;;;;;;;5034417;28;20040;-72
2022/12/09 02:56:23;;;;;;;9.07;4.75;;;;;;;;;;5042372;28;20024;-73
2022/12/09 02:59:08;;;;;;;12.40;5.47;;;;;;;;;;5039321;28;20032;-74
2022/12/09 03:01:56;;;;;;;11.63;6.03;;;;;;;;;;5021386;28;20069;-73
2022/12/09 03:04:44;;;;;;;12.38;5.15;;;;;;;;;;5013083;28;20260;-73
2022/12/09 03:07:42;;;;;;;12.32;6.25;;;;;;;;;;5009185;28;20397;-74
2022/12/09 03:10:33;;;;;;;11.23;5.93;;;;;;;;;;5026432;28;20040;-74
2022/12/09 03:13:26;;;;;;;9.80;5.57;;;;;;;;;;5000246;28;20028;-73
2022/12/09 03:16:11;;;;;;;11.93;5.05;;;;;;;;;;4999317;28;20552;-72
2022/12/09 03:19:04;;;;;;;10.88;5.30;;;;;;;;;;5013007;28;20038;-72
2022/12/09 03:21:52;;;;;;;11.70;5.55;;;;;;;;;;5026212;28;20053;-75
2022/12/09 03:25:03;;;;;;;10.55;5.70;;;;;;;;;;5012197;28;20057;-75
2022/12/09 03:27:52;;;;;;;10.57;5.03;;;;;;;;;;5009102;28;20672;-75
2022/12/09 03:30:39;;;;;;;11.38;5.63;;;;;;;;;;5017465;28;20024;-76
2022/12/09 03:33:26;;;;;;;11.20;5.85;;;;;;;;;;5026240;28;20056;-77
2022/12/09 03:36:13;;;;;;;11.10;5.40;;;;;;;;;;5012508;28;20388;-78
2022/12/09 03:38:59;;;;;;;12.05;5.55;;;;;;;;;;5012883;28;20025;-73
2022/12/09 03:41:46;;;;;;;10.13;5.65;;;;;;;;;;4999768;28;20029;-73
2022/12/09 03:44:37;;;;;;;11.77;5.90;;;;;;;;;;5026525;28;20494;-72
2022/12/09 03:47:23;;;;;;;9.60;5.15;;;;;;;;;;5008837;28;20083;-72
2022/12/09 03:50:08;;;;;;;13.82;6.32;;;;;;;;;;5025363;28;20037;-72
2022/12/09 03:53:05;;;;;;;12.65;5.47;;;;;;;;;;4999406;28;20049;-71
2022/12/09 03:55:54;;;;;;;10.23;5.53;;;;;;;;;;5024706;28;20029;-72
2022/12/09 03:58:41;;;;;;;8.77;4.65;;;;;;;;;;5010942;28;20456;-75
2022/12/09 04:01:27;;;;;;;11.82;5.18;;;;;;;;;;5024434;28;20055;-74
2022/12/09 04:04:12;;;;;;;10.55;5.40;;;;;;;;;;5027151;28;20061;-74
2022/12/09 04:06:58;;;;;;;11.57;5.25;;;;;;;;;;5033475;28;20031;-73
2022/12/09 04:09:43;;;;;;;11.15;5.47;;;;;;;;;;5018127;28;20028;-73
2022/12/09 04:12:28;;;;;;;9.10;4.65;;;;;;;;;;5033307;28;20157;-71
2022/12/09 04:15:14;;;;;;;12.02;5.57;;;;;;;;;;5031026;28;20038;-73
2022/12/09 04:17:59;;;;;;;11.40;5.55;;;;;;;;;;5030042;28;20044;-72
2022/12/09 04:20:44;;;;;;;10.35;5.68;;;;;;;;;;5030844;28;20027;-72
2022/12/09 04:23:29;;;;;;;9.93;5.13;;;;;;;;;;5033013;28;20629;-73
2022/12/09 04:26:15;;;;;;;11.00;5.00;;;;;;;;;;5033755;28;20035;-73
2022/12/09 04:29:01;;;;;;;10.75;5.30;;;;;;;;;;5031919;28;20033;-73
2022/12/09 04:31:46;;;;;;;9.88;4.45;;;;;;;;;;5019391;28;20476;-73
2022/12/09 04:34:32;;;;;;;13.95;5.63;;;;;;;;;;5039198;28;20087;-76
2022/12/09 04:37:17;;;;;;;10.40;6.25;;;;;;;;;;5028663;28;20029;-79
2022/12/09 04:40:06;;;;;;;9.20;5.20;;;;;;;;;;5016583;28;20019;-78
2022/12/09 04:42:51;;;;;;;9.25;4.72;;;;;;;;;;5019869;28;20017;-80
2022/12/09 04:45:36;;;;;;;8.90;5.20;;;;;;;;;;5038426;28;20172;-78
2022/12/09 04:48:21;;;;;;;9.93;5.40;;;;;;;;;;5021810;28;20036;-74
2022/12/09 04:51:08;;;;;;;7.97;4.63;;;;;;;;;;5034149;28;20025;-71
2022/12/09 04:53:53;;;;;;;11.65;5.03;;;;;;;;;;5039406;28;20033;-73
2022/12/09 04:56:38;;;;;;;8.43;4.47;;;;;;;;;;5028647;28;20045;-74
2022/12/09 04:59:24;;;;;;;11.48;5.05;;;;;;;;;;5037648;28;20078;-74
2022/12/09 05:02:09;;;;;;;10.35;4.88;;;;;;;;;;5034340;28;20056;-74
2022/12/09 05:04:54;;;;;;;10.02;5.38;;;;;;;;;;5041254;28;20213;-73
2022/12/09 05:07:39;;;;;;;14.50;5.20;;;;;;;;;;5037455;28;20124;-72
2022/12/09 05:10:24;;;;;;;10.82;4.85;;;;;;;;;;5026834;28;20408;-78
2022/12/09 05:13:10;;;;;;;9.32;5.10;;;;;;;;;;5018170;28;20039;-77
2022/12/09 05:16:00;;;;;;;10.27;4.88;;;;;;;;;;5018639;28;20029;-80
2022/12/09 05:18:46;;;;;;;11.10;5.50;;;;;;;;;;5019377;28;20032;-80
2022/12/09 05:21:31;;;;;;;11.90;5.43;;;;;;;;;;5032719;28;20029;-76
2022/12/09 05:24:16;;;;;;;12.45;5.85;;;;;;;;;;5020243;28;20028;-77
2022/12/09 05:27:03;;;;;;;11.85;5.82;;;;;;;;;;5034052;28;20086;-79
2022/12/09 05:29:48;;;;;;;11.27;6.18;;;;;;;;;;5033982;28;20029;-73
2022/12/09 05:32:33;;;;;;;11.40;5.40;;;;;;;;;;5035200;28;20056;-72
2022/12/09 05:35:19;;;;;;;10.32;5.43;;;;;;;;;;5033357;28;20175;-69
2022/12/09 05:38:04;;;;;;;10.30;5.05;;;;;;;;;;5035652;28;20183;-70
2022/12/09 05:40:49;;;;;;;12.93;5.22;;;;;;;;;;5031360;28;20487;-71
2022/12/09 05:43:37;;;;;;;12.27;5.78;;;;;;;;;;5017586;28;20482;-74
2022/12/09 05:46:23;;;;;;;10.73;5.57;;;;;;;;;;5026221;28;20021;-76
2022/12/09 05:49:08;;;;;;;12.73;6.07;;;;;;;;;;5032590;28;20689;-73
2022/12/09 05:51:53;;;;;;;11.75;6.32;;;;;;;;;;5035118;28;20503;-72
2022/12/09 05:54:39;;;;;;;10.73;5.30;;;;;;;;;;5028628;28;20383;-73
2022/12/09 05:57:24;;;;;;;10.18;5.25;;;;;;;;;;5035561;28;20090;-73
2022/12/09 06:00:10;;;;;;;14.38;7.13;;;;;;;;;;5031760;28;20143;-74
2022/12/09 06:02:55;;;;;;;12.43;5.85;;;;;;;;;;5034398;28;20558;-73
2022/12/09 06:05:40;;;;;;;10.82;5.97;;;;;;;;;;5035503;28;20024;-72
2022/12/09 06:08:26;;;;;;;11.80;5.95;;;;;;;;;;5035431;28;20040;-73
2022/12/09 06:11:16;;;;;;;11.70;6.28;;;;;;;;;;5036626;28;20033;-72
2022/12/09 06:14:01;;;;;;;13.50;6.55;;;;;;;;;;5031822;28;20043;-73
2022/12/09 06:16:46;;;;;;;11.43;6.05;;;;;;;;;;5029974;28;20044;-72
2022/12/09 06:19:31;;;;;;;10.60;5.68;;;;;;;;;;5032085;28;20060;-72
2022/12/09 06:22:16;;;;;;;13.43;6.57;;;;;;;;;;5036188;28;20072;-80
2022/12/09 06:25:02;;;;;;;10.05;5.70;;;;;;;;;;5033798;28;20531;-72
2022/12/09 06:27:47;;;;;;;11.80;6.28;;;;;;;;;;5035917;28;20029;-74
2022/12/09 06:30:32;;;;;;;11.02;5.85;;;;;;;;;;5028251;28;20450;-71
2022/12/09 06:33:18;;;;;;;16.33;5.93;;;;;;;;;;5033821;28;20116;-72
2022/12/09 06:36:04;;;;;;;12.35;6.25;;;;;;;;;;5031326;28;20073;-73
2022/12/09 06:38:49;;;;;;;11.15;6.75;;;;;;;;;;5035231;28;20372;-76
2022/12/09 06:41:34;;;;;;;11.20;6.38;;;;;;;;;;5043660;28;20021;-69
2022/12/09 06:44:19;;;;;;;13.63;5.68;;;;;;;;;;5029473;28;20083;-73
2022/12/09 06:47:05;;;;;;;12.75;6.57;;;;;;;;;;5021645;28;20107;-73
2022/12/09 06:49:51;;;;;;;11.63;6.75;;;;;;;;;;5035255;28;20110;-72
2022/12/09 06:52:36;;;;;;;12.45;5.75;;;;;;;;;;5033073;28;20031;-73
2022/12/09 06:55:21;;;;;;;12.10;6.13;;;;;;;;;;5035089;28;20476;-72
2022/12/09 06:58:07;;;;;;;11.95;6.10;;;;;;;;;;5035555;28;20029;-72
2022/12/09 07:00:52;;;;;;;14.10;6.85;;;;;;;;;;5032070;28;20128;-71
2022/12/09 07:03:38;;;;;;;14.18;7.47;;;;;;;;;;5035358;28;20069;-72
2022/12/09 07:06:42;;;;;;;14.48;6.80;;;;;;;;;;5034167;28;20064;-73
2022/12/09 07:09:27;;;;;;;10.50;6.53;;;;;;;;;;5014843;28;20029;-73
2022/12/09 07:12:12;;;;;;;10.82;6.25;;;;;;;;;;5037814;28;20096;-75
2022/12/09 07:15:07;;;;;;;18.08;8.40;;;;;;;;;;5029470;28;20017;-75
2022/12/09 07:17:52;;;;;;;10.98;5.90;;;;;;;;;;5034420;28;20116;-75
2022/12/09 07:20:37;;;;;;;11.93;6.32;;;;;;;;;;5029304;28;20025;-68
2022/12/09 07:23:23;;;;;;;13.27;7.07;;;;;;;;;;5015973;28;20025;-71
2022/12/09 07:26:08;;;;;;;10.85;5.97;;;;;;;;;;5033622;28;20032;-71
2022/12/09 07:28:53;;;;;;;16.50;8.35;;;;;;;;;;5037295;28;20475;-68
2022/12/09 07:31:38;;;;;;;14.23;7.65;;;;;;;;;;5032256;28;20037;-68
2022/12/09 07:34:24;;;;;;;12.90;6.95;;;;;;;;;;5029605;28;20102;-73
2022/12/09 07:37:09;;;;;;;14.23;7.88;;;;;;;;;;5032392;28;20709;-69
2022/12/09 07:39:54;;;;;;;13.15;6.57;;;;;;;;;;5034067;28;20025;-72
2022/12/09 07:42:39;;;;;;;16.40;7.95;;;;;;;;;;5032227;28;20025;-77
2022/12/09 07:45:24;;;;;;;13.32;6.75;;;;;;;;;;5039428;28;20031;-75
2022/12/09 07:48:10;;;;;;;11.45;6.30;;;;;;;;;;5031192;28;20039;-76
2022/12/09 07:50:58;;;;;;;14.38;6.55;;;;;;;;;;5030774;28;20025;-75
2022/12/09 07:53:44;;;;;;;15.02;7.72;;;;;;;;;;5032351;28;20052;-75
2022/12/09 07:56:29;;;;;;;13.27;6.20;;;;;;;;;;5028174;28;20051;-72
2022/12/09 07:59:14;;;;;;;11.32;6.40;;;;;;;;;;5030236;28;20492;-73
2022/12/09 08:02:00;;;;;;;16.38;7.65;;;;;;;;;;5031089;28;20381;-74
2022/12/09 08:04:45;;;;;;;13.05;6.82;;;;;;;;;;5030915;28;20380;-73
2022/12/09 08:07:30;;;;;;;13.35;6.80;;;;;;;;;;5030713;28;20029;-75
2022/12/09 08:10:16;;;;;;;13.25;7.75;;;;;;;;;;5032884;28;20486;-73
2022/12/09 08:13:01;;;;;;;16.17;7.93;;;;;;;;;;5029800;28;20025;-72
2022/12/09 08:15:46;;;;;;;13.00;6.15;;;;;;;;;;5035236;28;20116;-75
2022/12/09 08:18:32;;;;;;;16.33;7.20;;;;;;;;;;5037597;28;20490;-73
2022/12/09 08:21:22;;;;;;;14.32;7.07;;;;;;;;;;5031773;28;20056;-74
2022/12/09 08:24:09;;;;;;;15.60;6.75;;;;;;;;;;5030145;28;20113;-73
2022/12/09 08:26:54;;;;;;;11.57;6.40;;;;;;;;;;5032319;28;20437;-74
2022/12/09 08:29:39;;;;;;;13.65;6.10;;;;;;;;;;5030790;28;20051;-74
2022/12/09 08:32:25;;;;;;;13.60;7.25;;;;;;;;;;5038347;28;20078;-82
2022/12/09 08:35:13;;;;;;;12.13;6.85;;;;;;;;;;5030735;28;20033;-78
2022/12/09 08:37:59;;;;;;;12.55;8.20;;;;;;;;;;5044581;28;20045;-80
2022/12/09 08:40:44;;;;;;;15.23;7.45;;;;;;;;;;5031267;28;20063;-79
2022/12/09 08:43:29;;;;;;;14.77;7.45;;;;;;;;;;5032783;28;20052;-80
2022/12/09 08:46:14;;;;;;;13.65;7.53;;;;;;;;;;5032950;28;20520;-80
2022/12/09 08:49:00;;;;;;;15.73;7.72;;;;;;;;;;5040611;28;20323;-73
2022/12/09 08:51:46;;;;;;;15.00;7.97;;;;;;;;;;5023824;28;20053;-72
2022/12/09 08:54:31;;;;;;;15.63;7.38;;;;;;;;;;5037193;28;20607;-73
2022/12/09 08:57:21;;;;;;;13.63;8.00;;;;;;;;;;5036770;28;20032;-73
2022/12/09 09:00:06;;;;;;;14.43;7.80;;;;;;;;;;5032566;28;20107;-73
2022/12/09 09:02:52;;;;;;;17.88;7.72;;;;;;;;;;5034251;28;20476;-74
2022/12/09 09:05:37;;;;;;;12.52;7.32;;;;;;;;;;5035124;28;20579;-73
2022/12/09 09:08:22;;;;;;;14.68;7.90;;;;;;;;;;5031857;28;20032;-72
2022/12/09 09:11:12;;;;;;;15.93;8.25;;;;;;;;;;5021875;28;20079;-68
2022/12/09 09:13:57;;;;;;;17.27;8.85;;;;;;;;;;5033173;28;20032;-69
2022/12/09 09:16:43;;;;;;;20.48;10.00;;;;;;;;;;5035236;28;20068;-67
2022/12/09 09:19:28;;;;;;;15.82;9.50;;;;;;;;;;5035600;28;20324;-71
2022/12/09 09:22:13;;;;;;;18.15;9.48;;;;;;;;;;5029195;28;20033;-70
2022/12/09 09:24:59;;;;;;;16.58;10.25;;;;;;;;;;5035593;28;20033;-72
2022/12/09 09:27:44;;;;;;;23.55;9.45;;;;;;;;;;5035435;28;20041;-78
2022/12/09 09:30:29;;;;;;;16.80;8.38;;;;;;;;;;5033150;28;20025;-79
2022/12/09 09:33:17;;;;;;;14.27;8.63;;;;;;;;;;5036416;28;20037;-79
2022/12/09 09:36:04;;;;;;;15.43;9.00;;;;;;;;;;5032324;28;20037;-79
2022/12/09 09:38:50;;;;;;;18.25;9.35;;;;;;;;;;5034389;28;20049;-79
2022/12/09 09:42:14;;;;;;;16.20;8.05;;;;;;;;;;5034065;28;20174;-78
2022/12/09 09:45:01;;;;;;;14.25;8.48;;;;;;;;;;4944577;28;20517;-70
2022/12/09 09:47:48;;;;;;;16.95;8.45;;;;;;;;;;4946676;28;20031;-81
2022/12/09 09:50:54;;;;;;;15.60;8.30;;;;;;;;;;4952432;28;20081;-80
2022/12/09 09:53:40;;;;;;;14.88;8.70;;;;;;;;;;4952099;28;20038;-79
2022/12/09 09:56:30;;;;;;;15.82;9.07;;;;;;;;;;4949173;28;20051;-80
2022/12/09 09:59:25;;;;;;;16.25;9.05;;;;;;;;;;4930060;28;20099;-80
2022/12/09 10:02:10;;;;;;;16.77;8.80;;;;;;;;;;4944972;28;20055;-74
2022/12/09 10:04:58;;;;;;;19.05;10.05;;;;;;;;;;4952121;28;20023;-78
2022/12/09 10:07:47;;;;;;;17.40;8.98;;;;;;;;;;4934406;28;20034;-80
2022/12/09 10:10:55;;;;;;;16.47;9.27;;;;;;;;;;4947686;28;20430;-79
2022/12/09 10:13:53;;;;;;;15.43;8.65;;;;;;;;;;4940994;28;20036;-80
2022/12/09 10:16:57;;;;;;;17.83;9.63;;;;;;;;;;5032898;28;20102;-76
2022/12/09 10:19:45;;;;;;;19.00;9.70;;;;;;;;;;5036551;28;20140;-68
2022/12/09 10:22:38;;;;;;;18.35;9.57;;;;;;;;;;5035341;28;20017;-70
2022/12/09 10:25:25;;;;;;;21.65;10.27;;;;;;;;;;5042562;28;20335;-72
2022/12/09 10:28:22;;;;;;;19.55;10.15;;;;;;;;;;5020507;28;20496;-71
2022/12/09 10:31:08;;;;;;;16.35;8.85;;;;;;;;;;5030072;28;21267;-69
2022/12/09 10:33:54;;;;;;;18.00;10.18;;;;;;;;;;5027932;28;20107;-71
2022/12/09 10:36:42;;;;;;;22.10;9.45;;;;;;;;;;5032307;28;20068;-71
2022/12/09 10:39:27;;;;;;;14.52;8.43;;;;;;;;;;5032894;28;20025;-71
2022/12/09 10:45:17;;;;;;;16.50;8.68;;;;;;;;;;5036791;28;20096;-76
2022/12/09 10:48:02;;;;;;;20.30;10.45;;;;;;;;;;5034145;28;20407;-76
2022/12/09 10:50:53;;;;;;;17.17;9.23;;;;;;;;;;5021012;28;20027;-78
2022/12/09 10:53:47;;;;;;;20.10;10.75;;;;;;;;;;5033572;28;20036;-78
2022/12/09 10:56:34;;;;;;;17.35;9.55;;;;;;;;;;5033340;28;20032;-68
2022/12/09 10:59:23;;;;;;;16.90;10.15;;;;;;;;;;5033329;28;20506;-75
2022/12/09 11:02:09;;;;;;;16.50;9.68;;;;;;;;;;5034329;28;20091;-80
2022/12/09 11:04:54;;;;;;;16.45;10.65;;;;;;;;;;5019086;28;20045;-75
2022/12/09 11:07:45;;;;;;;17.48;10.38;;;;;;;;;;5032893;28;20499;-75
2022/12/09 11:10:31;;;;;;;21.10;11.50;;;;;;;;;;5030185;28;20108;-74
2022/12/09 11:13:18;;;;;;;23.60;11.35;;;;;;;;;;5033895;28;20029;-76
2022/12/09 11:16:06;;;;;;;19.63;10.25;;;;;;;;;;5033688;28;20121;-70
2022/12/09 11:18:51;;;;;;;22.23;11.75;;;;;;;;;;5025888;28;20033;-72
2022/12/09 11:21:37;;;;;;;19.75;10.48;;;;;;;;;;5031094;28;20397;-71
2022/12/09 11:24:24;;;;;;;21.55;10.90;;;;;;;;;;5030421;28;20100;-70
2022/12/09 11:27:30;;;;;;;24.15;12.18;;;;;;;;;;5030132;28;20029;-70
2022/12/09 11:30:15;;;;;;;19.20;10.18;;;;;;;;;;5038652;28;20055;-71
2022/12/09 11:33:06;;;;;;;18.35;10.68;;;;;;;;;;5028723;28;20087;-70
2022/12/09 11:36:04;;;;;;;22.98;12.15;;;;;;;;;;5029564;28;20029;-74
2022/12/09 11:38:51;;;;;;;24.15;11.35;;;;;;;;;;5030516;28;20079;-72
2022/12/09 11:44:41;;;;;;;25.77;10.38;;;;;;;;;;5032434;28;20032;-72
2022/12/09 11:47:26;;;;;;;18.45;11.63;;;;;;;;;;5030845;28;20029;-70
2022/12/09 11:50:24;;;;;;;30.13;13.00;;;;;;;;;;5031278;28;20036;-72
2022/12/09 11:53:09;;;;;;;24.63;12.52;;;;;;;;;;5032158;28;20051;-73
2022/12/09 11:55:54;;;;;;;23.25;12.23;;;;;;;;;;5033128;28;20029;-83
2022/12/09 11:58:42;;;;;;;18.67;11.65;;;;;;;;;;5032872;28;20391;-85
2022/12/09 12:01:46;;;;;;;17.77;10.90;;;;;;;;;;5040645;28;20052;-85
2022/12/09 12:04:36;;;;;;;22.55;12.07;;;;;;;;;;5025603;28;20053;-79
2022/12/09 12:07:24;;;;;;;21.73;12.57;;;;;;;;;;5029454;28;20033;-81
2022/12/09 12:10:14;;;;;;;21.48;11.05;;;;;;;;;;5031647;28;20555;-72
2022/12/09 12:12:59;;;;;;;;;;;;;;;;;;5031546;28;20358;-72
2022/12/09 12:16:04;;;;;;;20.92;10.95;;;;;;;;;;5028736;28;19909;-72
2022/12/09 12:18:56;;;;;;;24.73;10.60;;;;;;;;;;5028827;28;20042;-71
2022/12/09 12:21:59;;;;;;;22.80;11.40;;;;;;;;;;5027951;28;20040;-73
2022/12/09 12:24:52;;;;;;;21.73;11.65;;;;;;;;;;5013529;23;20049;-73
2022/12/09 12:27:57;;;;;;;21.00;11.52;;;;;;;;;;5023650;28;20040;-74
2022/12/09 12:30:54;;;;;;;18.95;10.85;;;;;;;;;;5008263;28;20489;-74
2022/12/09 12:34:15;;;;;;;18.15;11.27;;;;;;;;;;5017999;28;20050;-81
2022/12/09 12:37:21;;;;;;;23.08;12.15;;;;;;;;;;4930432;28;20031;-75
2022/12/09 12:40:38;;;;;;;21.35;12.57;;;;;;;;;;4935761;28;20038;-77
2022/12/09 12:47:01;;;;;;;21.88;11.88;;;;;;;;;;4947773;28;20032;-74
2022/12/09 12:49:54;;;;;;;23.50;12.02;;;;;;;;;;4933158;28;20031;-74
2022/12/09 12:52:43;;;;;;;22.88;12.00;;;;;;;;;;4929876;28;20027;-71
2022/12/09 12:55:28;;;;;;;17.40;11.02;;;;;;;;;;4942493;28;20484;-73
2022/12/09 12:58:29;;;;;;;19.73;10.07;;;;;;;;;;4941757;28;20518;-73
2022/12/09 13:01:21;;;;;;;21.25;11.50;;;;;;;;;;4923250;28;20027;-73
2022/12/09 13:04:12;;;;;;;22.80;12.38;;;;;;;;;;4934110;28;20031;-75
2022/12/09 13:07:16;;;;;;;25.80;13.10;;;;;;;;;;4939141;28;20458;-70
2022/12/09 13:10:12;;;;;;;20.88;11.20;;;;;;;;;;4936622;28;20034;-86
2022/12/09 13:12:58;;;;;;;23.23;12.52;;;;;;;;;;5009804;28;20033;-85
2022/12/09 13:15:45;;;;;;;20.08;11.88;;;;;;;;;;5013179;28;20083;-84
2022/12/09 13:18:34;;;;;;;22.13;11.52;;;;;;;;;;5008408;28;20037;-84
2022/12/09 13:21:20;;;;;;;23.90;13.38;;;;;;;;;;5009952;28;20084;-87
2022/12/09 13:24:16;;;;;;;19.05;10.95;;;;;;;;;;5005440;28;20034;-75
2022/12/09 13:27:10;;;;;;;22.90;12.63;;;;;;;;;;4980151;28;20025;-73
2022/12/09 13:30:00;;;;;;;22.45;13.13;;;;;;;;;;4994182;28;20085;-75
2022/12/09 13:32:58;;;;;;;21.00;13.18;;;;;;;;;;4984499;28;20498;-73
2022/12/09 13:35:50;;;;;;;21.35;12.35;;;;;;;;;;5012077;28;20105;-73
2022/12/09 13:38:38;;;;;;;29.08;13.80;;;;;;;;;;5010101;28;20479;-72
2022/12/09 13:41:29;;;;;;;20.63;11.82;;;;;;;;;;4997600;28;20037;-75
2022/12/09 13:44:17;;;;;;;18.73;10.85;;;;;;;;;;5002062;28;20038;-83
2022/12/09 13:47:23;;;;;;;21.13;12.27;;;;;;;;;;4983161;28;20128;-72
2022/12/09 13:50:27;;;;;;;26.38;13.98;;;;;;;;;;4985732;28;20044;-74
2022/12/09 13:53:19;;;;;;;22.83;13.23;;;;;;;;;;4996100;28;20735;-72
2022/12/09 13:56:11;;;;;;;20.27;11.88;;;;;;;;;;5010507;28;20041;-72
2022/12/09 13:59:15;;;;;;;22.15;11.93;;;;;;;;;;4979005;28;20556;-72
2022/12/09 14:02:12;;;;;;;21.83;13.07;;;;;;;;;;4983341;28;20536;-71
2022/12/09 14:05:00;;;;;;;24.08;13.45;;;;;;;;;;4996189;28;20054;-72
2022/12/09 14:07:51;;;;;;;23.63;12.55;;;;;;;;;;4984509;28;20093;-72
2022/12/09 14:10:39;;;;;;;23.77;13.18;;;;;;;;;;5015030;28;20076;-73
2022/12/09 14:13:29;;;;;;;27.13;14.35;;;;;;;;;;4996045;28;20034;-73
2022/12/09 14:16:17;;;;;;;;;;;;;;;;;;4996675;28;20034;-72
2022/12/09 14:19:21;;;;;;;24.70;13.95;;;;;;;;;;4992684;28;19932;-69
2022/12/09 14:22:21;;;;;;;22.98;12.93;;;;;;;;;;4996597;28;20064;-71
2022/12/09 14:25:24;;;;;;;24.45;13.93;;;;;;;;;;4996228;28;20133;-70
2022/12/09 14:28:12;;;;;;;22.90;13.15;;;;;;;;;;4998761;28;20509;-72
2022/12/09 14:30:59;;;;;;;20.73;12.60;;;;;;;;;;4995738;28;20030;-72
2022/12/09 14:33:45;;;;;;;26.98;14.00;;;;;;;;;;4993365;28;20501;-72
2022/12/09 14:36:31;;;;;;;22.52;13.73;;;;;;;;;;4981829;28;20025;-72
2022/12/09 14:39:20;;;;;;;25.80;15.18;;;;;;;;;;4998186;28;20030;-70
2022/12/09 14:42:18;;;;;;;29.05;14.82;;;;;;;;;;4999945;28;20068;-70
2022/12/09 14:45:22;;;;;;;26.10;16.33;;;;;;;;;;4995684;28;20042;-71
2022/12/09 14:48:09;;;;;;;24.95;14.88;;;;;;;;;;4981844;28;20025;-68
2022/12/09 14:51:05;;;;;;;29.50;15.20;;;;;;;;;;5007947;28;20025;-69
2022/12/09 14:53:58;;;;;;;26.88;15.50;;;;;;;;;;4994846;28;20385;-70
2022/12/09 14:56:48;;;;;;;26.17;15.43;;;;;;;;;;4992821;28;20038;-70
2022/12/09 14:59:34;;;;;;;27.13;14.10;;;;;;;;;;4993526;28;20045;-73
2022/12/09 15:02:19;;;;;;;24.13;14.80;;;;;;;;;;4995407;28;20595;-69
2022/12/09 15:05:14;;;;;;;26.33;14.80;;;;;;;;;;4994566;28;20034;-71
2022/12/09 15:07:59;;;;;;;28.55;14.85;;;;;;;;;;5002986;28;20150;-71
2022/12/09 15:10:44;;;;;;;27.23;15.93;;;;;;;;;;4994159;28;20037;-72
2022/12/09 15:13:30;;;;;;;27.70;16.10;;;;;;;;;;5006495;28;20164;-71
2022/12/09 15:16:17;;;;;;;25.95;14.65;;;;;;;;;;4995627;28;20037;-84
2022/12/09 15:19:02;;;;;;;28.48;17.48;;;;;;;;;;4979758;28;20034;-71
2022/12/09 15:21:48;;;;;;;27.08;15.50;;;;;;;;;;4994989;28;20034;-74
2022/12/09 15:24:33;;;;;;;29.92;17.10;;;;;;;;;;4979657;28;20049;-73
2022/12/09 15:27:20;;;;;;;27.52;15.55;;;;;;;;;;4996767;28;20103;-71
2022/12/09 15:30:22;;;;;;;29.35;16.83;;;;;;;;;;4992007;28;20107;-70
2022/12/09 15:33:15;;;;;;;27.35;15.65;;;;;;;;;;4995927;28;20065;-73
2022/12/09 15:36:02;;;;;;;28.77;17.00;;;;;;;;;;4993580;28;20032;-77
2022/12/09 15:38:50;;;;;;;28.38;15.70;;;;;;;;;;4981866;28;20191;-75
2022/12/09 15:44:57;;;;;;;30.50;16.83;;;;;;;;;;5000408;28;20116;-74
2022/12/09 15:48:03;;;;;;;30.50;16.05;;;;;;;;;;4990006;28;20233;-74
2022/12/09 15:50:52;;;;;;;27.23;15.73;;;;;;;;;;4984742;28;20040;-68
2022/12/09 15:53:48;;;;;;;26.00;15.63;;;;;;;;;;4995225;28;20404;-68
2022/12/09 15:56:34;;;;;;;27.60;16.02;;;;;;;;;;4981906;28;20272;-69
2022/12/09 15:59:21;;;;;;;28.70;16.33;;;;;;;;;;4994045;28;20031;-68
2022/12/09 16:02:08;;;;;;;23.20;15.27;;;;;;;;;;4994296;28;20105;-71
2022/12/09 16:04:56;;;;;;;26.20;15.52;;;;;;;;;;4987528;28;20121;-69
2022/12/09 16:07:52;;;;;;;28.23;16.33;;;;;;;;;;4994672;28;20394;-70
2022/12/09 16:10:44;;;;;;;25.23;15.90;;;;;;;;;;4997313;28;20117;-74
2022/12/09 16:13:30;;;;;;;28.85;17.13;;;;;;;;;;4994565;28;20417;-76
2022/12/09 16:16:25;;;;;;;30.83;16.85;;;;;;;;;;4978577;28;20017;-76
2022/12/09 16:19:29;;;;;;;31.00;17.23;;;;;;;;;;4982122;28;20033;-75
2022/12/09 16:22:14;;;;;;;29.48;16.15;;;;;;;;;;4994837;28;20040;-74
2022/12/09 16:25:02;;;;;;;33.65;19.00;;;;;;;;;;4980715;28;20050;-75
2022/12/09 16:27:49;;;;;;;30.70;19.08;;;;;;;;;;4994729;28;20117;-75
2022/12/09 16:30:43;;;;;;;32.25;17.27;;;;;;;;;;4994864;28;20493;-73
2022/12/09 16:33:31;;;;;;;30.40;18.10;;;;;;;;;;4993209;28;20123;-73
2022/12/09 16:36:18;;;;;;;28.25;16.58;;;;;;;;;;4994913;28;20119;-72
2022/12/09 16:39:06;;;;;;;32.55;17.77;;;;;;;;;;4994595;28;20041;-71
2022/12/09 16:41:51;;;;;;;31.30;17.27;;;;;;;;;;4994806;28;20034;-72
2022/12/09 16:44:37;;;;;;;32.42;17.98;;;;;;;;;;4994634;28;20176;-72
2022/12/09 16:47:25;;;;;;;33.97;17.83;;;;;;;;;;4987348;28;20041;-70